Roes Welcome - northern half: Past 24 Hour Conditions

 

Rankin Inlet Airport

02:00 AM CDT 17 April 2014
This table is a summary of hourly weather conditions for the past 24 hours.
Date / Time
(CDT)
Wind(knots) Conditions Visibility(km) Pressure(kPa) Air tempC) Relative humidity(%) Dew pointC) Wind Chill
17 April 2014
2:00 WNW 14 Mostly Cloudy 24 100.7 -15 82 -17 -25
1:00 WNW 18 Mostly Cloudy 24 100.7 -13 82 -16 -24
0:00 WNW 18 gust 23 Cloudy 24 100.8 -13 81 -16 -24
16 April 2014
23:00 WNW 12 gust 18 Mostly Cloudy 24 100.9 -14 81 -17 -23
22:00 WNW 16 Mostly Cloudy 24 101.0 -14 81 -17 -25
21:00 WNW 13 Mostly Cloudy 24 101.1 -14 81 -17 -24
20:00 WNW 9 Cloudy 24 101.1 -13 79 -16 -21
19:00 WNW 11 Cloudy 24 101.2 -13 77 -16 -22
18:00 WNW 16 Cloudy 24 101.3 -12 74 -16 -22
17:00 NW 19 Cloudy 24 101.4 -12 73 -16 -22
16:00 NW 15 Mostly Cloudy 24 101.5 -11 71 -16 -21
15:00 NW 17 Mostly Cloudy 24 101.5 -12 68 -17 -22
14:00 NW 18 Partly Cloudy 24 101.6 -12 69 -17 -23
13:00 NW 16 Drifting Snow 24 101.6 -13 69 -17 -23
12:00 NNW 14 gust 21 Drifting Snow 24 101.7 -15 69 -19 -25
11:00 NW 18 Drifting Snow 24 101.8 -16 72 -20 -27
10:00 NNW 18 Drifting Snow 24 101.8 -17 72 -21 -29
9:00 NNW 24 gust 29 Drifting Snow 24 101.8 -17 72 -21 -31
8:00 NNW 21 gust 26 Drifting Snow 24 101.9 -18 74 -22 -32
7:00 NNW 24 Drifting Snow 19 101.9 -19 75 -22 -33
6:00 NNW 22 Drifting Snow 24 102.0 -19 75 -22 -32
5:00 NNW 24 Cloudy 24 102.0 -19 76 -22 -33
4:00 NNW 19 Cloudy 24 102.1 -19 77 -22 -32
3:00 NNW 19 Mostly Cloudy 24 102.1 -19 76 -23 -33
2:00 NNW 17 Mostly Cloudy 24 102.2 -20 76 -23 -32
 
Map of Arctic - Eastern Arctic marine weather areas Baker Lake Airport Chesterfield Inlet Airport Coral Harbour Airport Gjoa Haven Airport Kugaaruk Airport Rankin Inlet Airport Shepherd Bay Airport Whale Cove Airport Arctic Bay Brevoort Island Qikiqtarjuaq Airport Cape Dorset Airport Cape Dyer Cape Hooper Clyde Airport Grise Fiord Airport Hall Beach Airport Igloolik Airport Iqaluit Airport Longstaff Bluff Pangnirtung Airport Pond Inlet Airport Repulse Bay Airport Resolute Airport Resolution Island Rowley Island Airport Taloyoak Airport Wager Bay Akulivik Airport Ivujivik Airport Puvirnituq Airport Kangiqsujuaq Airport Kangirsuk Airport Quaqtaq Airport Tasiujaq Airport Cape Kakkiviak Cape Kiglapait Nain Airport Saglek Cape Mercy Kimmirut Airport Aupaluk Airport Salluit Airport Kangiqsualujjuaq Airport Fort Ross
Legend: buoyBuoy land stationLand Station